createdAt,value
2018-07-25T00:00:37.049Z,56.10
2018-07-25T00:01:36.982Z,56.39
2018-07-25T00:02:36.937Z,56.10
2018-07-25T00:03:36.894Z,56.10
2018-07-25T00:04:36.857Z,56.00
2018-07-25T00:05:36.856Z,56.29
2018-07-25T00:06:36.779Z,55.33
2018-07-25T00:07:36.728Z,55.42
2018-07-25T00:08:36.686Z,55.71
2018-07-25T00:09:36.646Z,55.90
2018-07-25T00:10:36.640Z,55.23
2018-07-25T00:11:36.564Z,55.23
2018-07-25T00:12:36.524Z,55.13
2018-07-25T00:13:36.516Z,55.23
2018-07-25T00:14:36.444Z,55.23
2018-07-25T00:15:36.400Z,55.23
2018-07-25T00:16:36.395Z,54.84
2018-07-25T00:17:36.317Z,54.29
2018-07-25T00:18:36.276Z,54.58
2018-07-25T00:19:36.234Z,54.58
2018-07-25T00:20:36.193Z,54.39
2018-07-25T00:21:36.259Z,54.39
2018-07-25T00:22:36.113Z,54.29
2018-07-25T00:23:36.069Z,54.19
2018-07-25T00:24:36.032Z,54.00
2018-07-25T00:25:35.988Z,54.00
2018-07-25T00:26:35.981Z,54.10
2018-07-25T00:27:35.906Z,53.81
2018-07-25T00:28:35.910Z,53.91
2018-07-25T00:29:35.827Z,53.91
2018-07-25T00:30:35.783Z,54.29
2018-07-25T00:31:35.737Z,53.52
2018-07-25T00:32:35.701Z,53.42
2018-07-25T00:33:35.689Z,53.61
2018-07-25T00:34:35.623Z,53.42
2018-07-25T00:35:35.582Z,53.52
2018-07-25T00:36:35.535Z,53.42
2018-07-25T00:37:35.497Z,53.91
2018-07-25T00:38:35.486Z,53.81
2018-07-25T00:39:35.456Z,53.81
2018-07-25T00:40:35.369Z,53.71
2018-07-25T00:41:35.327Z,53.71
2018-07-25T00:42:35.313Z,53.81
2018-07-25T00:43:35.244Z,54.10
2018-07-25T00:44:35.249Z,54.00
2018-07-25T00:45:35.166Z,53.42
2018-07-25T00:46:35.123Z,53.91
2018-07-25T00:47:35.082Z,53.71
2018-07-25T00:48:35.041Z,53.91
2018-07-25T00:49:35.030Z,53.71
2018-07-25T00:50:34.956Z,54.10
2018-07-25T00:51:34.916Z,54.00
2018-07-25T00:52:34.909Z,54.19
2018-07-25T00:53:34.833Z,54.10
2018-07-25T00:54:34.790Z,54.29
2018-07-25T00:55:34.749Z,54.58
2018-07-25T00:56:34.713Z,54.19
2018-07-25T00:57:34.701Z,54.46
2018-07-25T00:58:34.625Z,54.75
2018-07-25T00:59:34.584Z,54.46
2018-07-25T01:00:34.544Z,54.65
2018-07-25T01:01:34.504Z,54.75
2018-07-25T01:02:34.487Z,55.13
2018-07-25T01:03:34.421Z,54.84
2018-07-25T01:04:34.380Z,54.84
2018-07-25T01:05:34.341Z,55.04
2018-07-25T01:06:34.340Z,55.23
2018-07-25T01:07:34.262Z,54.84
2018-07-25T01:08:34.215Z,54.94
2018-07-25T01:09:34.172Z,55.04
2018-07-25T01:10:34.136Z,55.23
2018-07-25T01:11:34.122Z,54.94
2018-07-25T01:12:34.083Z,55.42
2018-07-25T01:13:34.005Z,55.33
2018-07-25T01:14:33.966Z,55.23
2018-07-25T01:15:33.924Z,55.33
2018-07-25T01:16:33.882Z,55.52
2018-07-25T01:17:33.872Z,55.04
2018-07-25T01:18:33.805Z,55.42
2018-07-25T01:19:33.759Z,55.23
2018-07-25T01:20:33.713Z,55.04
2018-07-25T01:21:33.674Z,55.23
2018-07-25T01:22:33.690Z,55.42
2018-07-25T01:23:33.591Z,55.04
2018-07-25T01:24:33.549Z,55.23
2018-07-25T01:25:33.508Z,55.42
2018-07-25T01:26:33.472Z,55.33
2018-07-25T01:27:33.461Z,54.94
2018-07-25T01:28:33.431Z,55.01
2018-07-25T01:29:33.342Z,55.40
2018-07-25T01:30:33.300Z,55.49
2018-07-25T01:31:33.261Z,55.49
2018-07-25T01:32:33.216Z,55.30
2018-07-25T01:33:33.212Z,55.40
2018-07-25T01:34:33.142Z,54.91
2018-07-25T01:35:33.098Z,54.91
2018-07-25T01:36:33.084Z,55.01
2018-07-25T01:37:33.011Z,55.20
2018-07-25T01:38:33.018Z,55.30
2018-07-25T01:39:32.926Z,55.40
2018-07-25T01:40:32.886Z,55.40
2018-07-25T01:41:32.845Z,55.49
2018-07-25T01:42:32.804Z,55.68
2018-07-25T01:43:32.794Z,55.40
2018-07-25T01:44:32.724Z,55.59
2018-07-25T01:45:32.679Z,55.78
2018-07-25T01:46:32.635Z,55.98
2018-07-25T01:47:32.624Z,55.78
2018-07-25T01:48:32.555Z,56.16
2018-07-25T01:49:32.511Z,55.68
2018-07-25T01:50:32.504Z,55.88
2018-07-25T01:51:32.458Z,55.10
2018-07-25T01:52:32.385Z,55.59
2018-07-25T01:53:32.345Z,55.30
2018-07-25T01:54:32.301Z,55.78
2018-07-25T01:55:32.259Z,54.82
2018-07-25T01:56:32.252Z,55.59
2018-07-25T01:57:32.182Z,55.68
2018-07-25T01:58:32.135Z,55.30
2018-07-25T01:59:32.091Z,55.01
2018-07-25T02:00:32.057Z,55.78
2018-07-25T02:01:32.131Z,55.20
2018-07-25T02:02:31.970Z,55.59
2018-07-25T02:03:31.925Z,55.49
2018-07-25T02:04:31.889Z,55.98
2018-07-25T02:05:31.848Z,56.16
2018-07-25T02:06:31.843Z,56.16
2018-07-25T02:07:31.760Z,56.16
2018-07-25T02:08:31.718Z,56.16
2018-07-25T02:09:31.685Z,56.07
2018-07-25T02:10:31.633Z,55.78
2018-07-25T02:11:31.632Z,56.26
2018-07-25T02:12:31.552Z,56.07
2018-07-25T02:13:31.505Z,55.59
2018-07-25T02:14:31.471Z,55.88
2018-07-25T02:15:31.426Z,55.68
2018-07-25T02:16:31.414Z,55.98
2018-07-25T02:17:31.372Z,56.26
2018-07-25T02:18:31.333Z,56.16
2018-07-25T02:19:31.308Z,56.26
2018-07-25T02:20:31.214Z,56.16
2018-07-25T02:21:31.174Z,56.24
2018-07-25T02:22:31.139Z,57.23
2018-07-25T02:23:31.128Z,56.43
2018-07-25T02:24:31.079Z,57.49
2018-07-25T02:25:31.002Z,57.59
2018-07-25T02:26:30.965Z,57.87
2018-07-25T02:27:30.922Z,57.87
2018-07-25T02:28:30.912Z,58.26
2018-07-25T02:29:30.886Z,59.03
2018-07-25T02:30:30.810Z,58.84
2018-07-25T02:31:30.763Z,59.32
2018-07-25T02:32:30.713Z,59.48
2018-07-25T02:33:30.671Z,60.16
2018-07-25T02:34:30.660Z,59.87
2018-07-25T02:35:30.591Z,59.75
2018-07-25T02:36:30.547Z,61.19
2018-07-25T02:37:30.499Z,62.06
2018-07-25T02:38:30.460Z,61.68
2018-07-25T02:39:30.473Z,61.93
2018-07-25T02:40:30.377Z,61.55
2018-07-25T02:41:30.335Z,62.51
2018-07-25T02:42:30.319Z,62.54
2018-07-25T02:43:30.250Z,62.32
2018-07-25T02:44:30.248Z,62.51
2018-07-25T02:45:30.168Z,62.06
2018-07-25T02:46:30.120Z,61.83
2018-07-25T02:47:30.084Z,61.96
2018-07-25T02:48:30.040Z,62.70
2018-07-25T02:49:30.028Z,62.90
2018-07-25T02:50:29.958Z,62.12
2018-07-25T02:51:29.912Z,62.22
2018-07-25T02:52:29.907Z,62.90
2018-07-25T02:53:29.827Z,62.60
2018-07-25T02:54:29.785Z,62.80
2018-07-25T02:55:29.772Z,62.32
2018-07-25T02:56:29.704Z,63.15
2018-07-25T02:57:29.658Z,63.44
2018-07-25T02:58:29.652Z,64.12
2018-07-25T02:59:29.571Z,64.02
2018-07-25T03:00:29.535Z,64.21
2018-07-25T03:01:29.524Z,64.31
2018-07-25T03:02:29.478Z,64.31
2018-07-25T03:03:29.436Z,64.59
2018-07-25T03:04:29.363Z,65.08
2018-07-25T03:05:29.320Z,65.05
2018-07-25T03:06:29.275Z,65.37
2018-07-25T03:07:29.268Z,65.14
2018-07-25T03:08:29.192Z,65.14
2018-07-25T03:09:29.154Z,64.66
2018-07-25T03:10:29.107Z,65.14
2018-07-25T03:11:29.065Z,65.72
2018-07-25T03:12:29.063Z,65.33
2018-07-25T03:13:28.978Z,64.66
2018-07-25T03:14:28.940Z,65.72
2018-07-25T03:15:28.895Z,66.10
2018-07-25T03:16:28.863Z,66.30
2018-07-25T03:17:28.850Z,66.68
2018-07-25T03:18:28.770Z,67.16
2018-07-25T03:19:28.733Z,67.55
2018-07-25T03:20:28.682Z,67.16
2018-07-25T03:21:28.637Z,67.55
2018-07-25T03:22:28.629Z,67.16
2018-07-25T03:23:28.556Z,67.93
2018-07-25T03:24:28.516Z,67.83
2018-07-25T03:25:28.467Z,67.26
2018-07-25T03:26:28.429Z,67.90
2018-07-25T03:27:28.427Z,68.22
2018-07-25T03:28:28.339Z,67.80
2018-07-25T03:29:28.294Z,67.42
2018-07-25T03:30:28.253Z,67.32
2018-07-25T03:31:28.295Z,67.42
2018-07-25T03:32:28.198Z,67.16
2018-07-25T03:33:28.125Z,67.35
2018-07-25T03:34:28.080Z,67.16
2018-07-25T03:35:28.072Z,67.45
2018-07-25T03:36:27.993Z,67.26
2018-07-25T03:37:28.016Z,66.58
2018-07-25T03:38:27.915Z,67.16
2018-07-25T03:39:27.900Z,67.26
2018-07-25T03:40:27.857Z,67.07
2018-07-25T03:41:27.785Z,67.16
2018-07-25T03:42:27.739Z,67.26
2018-07-25T03:43:27.701Z,67.16
2018-07-25T03:44:27.653Z,67.45
2018-07-25T03:45:27.646Z,67.26
2018-07-25T03:46:27.564Z,68.13
2018-07-25T03:47:27.530Z,67.74
2018-07-25T03:48:27.513Z,67.93
2018-07-25T03:49:27.438Z,67.65
2018-07-25T03:50:27.391Z,67.93
2018-07-25T03:51:27.356Z,68.41
2018-07-25T03:52:27.309Z,68.22
2018-07-25T03:53:27.302Z,67.83
2018-07-25T03:54:27.223Z,67.93
2018-07-25T03:55:27.177Z,68.80
2018-07-25T03:56:27.137Z,68.32
2018-07-25T03:57:27.094Z,68.41
2018-07-25T03:58:27.086Z,68.48
2018-07-25T03:59:27.013Z,68.57
2018-07-25T04:00:26.967Z,68.29
2018-07-25T04:01:26.919Z,68.60
2018-07-25T04:02:26.927Z,67.74
2018-07-25T04:03:26.874Z,68.32
2018-07-25T04:04:26.800Z,68.41
2018-07-25T04:05:26.747Z,68.60
2018-07-25T04:06:26.704Z,68.32
2018-07-25T04:07:26.662Z,68.60
2018-07-25T04:08:26.654Z,68.32
2018-07-25T04:09:26.616Z,68.80
2018-07-25T04:10:26.533Z,67.83
2018-07-25T04:11:26.487Z,68.80
2018-07-25T04:12:26.451Z,68.41
2018-07-25T04:13:26.404Z,68.70
2018-07-25T04:14:26.393Z,68.32
2018-07-25T04:15:26.331Z,68.51
2018-07-25T04:16:26.276Z,68.99
2018-07-25T04:17:26.231Z,68.51
2018-07-25T04:18:26.188Z,69.38
2018-07-25T04:19:26.196Z,68.60
2018-07-25T04:20:26.102Z,69.28
2018-07-25T04:21:26.062Z,68.51
2018-07-25T04:22:26.017Z,68.41
2018-07-25T04:23:25.973Z,68.80
2018-07-25T04:24:25.964Z,68.41
2018-07-25T04:25:25.886Z,68.60
2018-07-25T04:26:25.842Z,68.60
2018-07-25T04:27:25.803Z,69.67
2018-07-25T04:28:25.754Z,69.28
2018-07-25T04:29:25.753Z,68.90
2018-07-25T04:30:25.674Z,69.85
2018-07-25T04:31:25.630Z,69.28
2018-07-25T04:32:25.589Z,69.57
2018-07-25T04:33:25.541Z,69.67
2018-07-25T04:34:25.540Z,69.57
2018-07-25T04:35:25.457Z,69.95
2018-07-25T04:36:25.412Z,70.62
2018-07-25T04:37:25.368Z,69.76
2018-07-25T04:38:25.327Z,70.62
2018-07-25T04:39:25.327Z,70.82
2018-07-25T04:40:25.239Z,70.88
2018-07-25T04:41:25.196Z,70.78
2018-07-25T04:42:25.162Z,71.01
2018-07-25T04:43:25.113Z,69.67
2018-07-25T04:44:25.100Z,69.95
2018-07-25T04:45:25.026Z,69.76
2018-07-25T04:46:25.077Z,69.57
2018-07-25T04:47:24.940Z,70.05
2018-07-25T04:48:24.895Z,69.76
2018-07-25T04:49:24.852Z,69.85
2018-07-25T04:50:24.849Z,70.43
2018-07-25T04:51:24.767Z,70.62
2018-07-25T04:52:24.730Z,71.20
2018-07-25T04:53:24.680Z,70.43
2018-07-25T04:54:24.675Z,70.72
2018-07-25T04:55:24.630Z,70.53
2018-07-25T04:56:24.552Z,69.89
2018-07-25T04:57:24.543Z,69.89
2018-07-25T04:58:24.462Z,69.70
2018-07-25T04:59:24.428Z,69.31
2018-07-25T05:00:24.383Z,69.70
2018-07-25T05:01:24.371Z,69.70
2018-07-25T05:02:24.300Z,70.21
2018-07-25T05:03:24.287Z,69.89
2018-07-25T05:04:24.209Z,69.70
2018-07-25T05:05:24.166Z,69.73
2018-07-25T05:06:24.118Z,69.70
2018-07-25T05:07:24.090Z,69.89
2018-07-25T05:08:24.082Z,70.60
2018-07-25T05:09:23.994Z,70.09
2018-07-25T05:10:23.950Z,69.89
2018-07-25T05:11:23.905Z,70.02
2018-07-25T05:12:23.867Z,70.89
2018-07-25T05:13:23.866Z,70.70
2018-07-25T05:14:23.776Z,70.41
2018-07-25T05:15:23.733Z,70.66
2018-07-25T05:16:23.693Z,70.31
2018-07-25T05:17:23.648Z,70.66
2018-07-25T05:18:23.637Z,70.86
2018-07-25T05:19:23.564Z,71.28
2018-07-25T05:20:23.522Z,71.18
2018-07-25T05:21:23.487Z,71.28
2018-07-25T05:22:23.435Z,70.79
2018-07-25T05:23:23.453Z,70.60
2018-07-25T05:24:23.349Z,70.79
2018-07-25T05:25:23.304Z,70.89
2018-07-25T05:26:23.261Z,69.93
2018-07-25T05:27:23.255Z,70.12
2018-07-25T05:28:23.175Z,70.12
2018-07-25T05:29:23.169Z,69.73
2018-07-25T05:30:23.091Z,69.93
2018-07-25T05:31:23.047Z,69.83
2018-07-25T05:32:23.004Z,70.21
2018-07-25T05:33:22.961Z,69.83
2018-07-25T05:34:22.956Z,70.12
2018-07-25T05:35:22.883Z,70.02
2018-07-25T05:36:22.840Z,69.93
2018-07-25T05:37:22.792Z,70.21
2018-07-25T05:38:22.751Z,69.96
2018-07-25T05:39:22.738Z,69.87
2018-07-25T05:40:22.695Z,69.73
2018-07-25T05:41:22.619Z,69.29
2018-07-25T05:42:22.577Z,69.38
2018-07-25T05:43:22.535Z,69.77
2018-07-25T05:44:22.524Z,69.96
2018-07-25T05:45:22.448Z,69.87
2018-07-25T05:46:22.452Z,69.19
2018-07-25T05:47:22.369Z,69.19
2018-07-25T05:48:22.325Z,68.74
2018-07-25T05:49:22.330Z,68.65
2018-07-25T05:50:22.239Z,68.65
2018-07-25T05:51:22.233Z,68.84
2018-07-25T05:52:22.154Z,68.84
2018-07-25T05:53:22.110Z,68.93
2018-07-25T05:54:22.067Z,68.39
2018-07-25T05:55:22.026Z,68.29
2018-07-25T05:56:22.021Z,68.29
2018-07-25T05:57:21.941Z,68.59
2018-07-25T05:58:21.899Z,68.29
2018-07-25T05:59:21.864Z,68.10
2018-07-25T06:00:21.819Z,67.52
2018-07-25T06:01:21.812Z,67.14
2018-07-25T06:02:21.730Z,67.46
2018-07-25T06:03:21.746Z,67.46
2018-07-25T06:04:21.712Z,67.27
2018-07-25T06:05:21.609Z,66.88
2018-07-25T06:06:21.595Z,66.97
2018-07-25T06:07:21.522Z,66.59
2018-07-25T06:08:21.511Z,66.69
2018-07-25T06:09:21.436Z,66.20
2018-07-25T06:10:21.390Z,66.49
2018-07-25T06:11:21.385Z,66.30
2018-07-25T06:12:21.342Z,65.95
2018-07-25T06:13:21.300Z,64.89
2018-07-25T06:14:21.241Z,65.08
2018-07-25T06:15:21.185Z,64.98
2018-07-25T06:16:21.146Z,64.59
2018-07-25T06:17:21.147Z,65.27
2018-07-25T06:18:21.058Z,64.69
2018-07-25T06:19:21.018Z,64.40
2018-07-25T06:20:20.978Z,64.31
2018-07-25T06:21:20.935Z,63.63
2018-07-25T06:22:20.931Z,63.66
2018-07-25T06:23:20.852Z,63.37
2018-07-25T06:24:20.810Z,63.37
2018-07-25T06:25:20.765Z,63.47
2018-07-25T06:26:20.732Z,63.37
2018-07-25T06:27:20.727Z,63.08
2018-07-25T06:28:20.643Z,63.47
2018-07-25T06:29:20.604Z,63.37
2018-07-25T06:30:20.560Z,63.76
2018-07-25T06:31:20.574Z,63.76
2018-07-25T06:32:20.510Z,63.76
2018-07-25T06:33:20.435Z,63.47
2018-07-25T06:34:20.429Z,64.43
2018-07-25T06:35:20.384Z,63.66
2018-07-25T06:36:20.315Z,63.95
2018-07-25T06:37:20.271Z,64.24
2018-07-25T06:38:20.229Z,64.24
2018-07-25T06:39:20.322Z,64.24
2018-07-25T06:40:20.144Z,64.18
2018-07-25T06:41:20.105Z,63.50
2018-07-25T06:42:20.063Z,62.53
2018-07-25T06:43:20.132Z,62.15
2018-07-25T06:44:20.017Z,61.86
2018-07-25T06:45:19.982Z,61.95
2018-07-25T06:46:19.898Z,62.05
2018-07-25T06:47:19.857Z,61.95
2018-07-25T06:48:19.815Z,63.02
2018-07-25T06:49:19.771Z,63.11
2018-07-25T06:50:19.769Z,62.92
2018-07-25T06:51:19.726Z,62.82
2018-07-25T06:52:19.651Z,62.92
2018-07-25T06:53:19.610Z,63.40
2018-07-25T06:54:19.572Z,63.21
2018-07-25T06:55:19.527Z,63.02
2018-07-25T06:56:19.519Z,63.40
2018-07-25T06:57:19.471Z,63.53
2018-07-25T06:58:19.405Z,62.76
2018-07-25T06:59:19.362Z,62.95
2018-07-25T07:00:19.324Z,63.14
2018-07-25T07:01:19.316Z,62.76
2018-07-25T07:02:19.241Z,62.27
2018-07-25T07:03:19.198Z,61.89
2018-07-25T07:04:19.161Z,61.79
2018-07-25T07:05:19.117Z,61.89
2018-07-25T07:06:19.108Z,61.92
2018-07-25T07:07:19.035Z,61.89
2018-07-25T07:08:19.000Z,61.69
2018-07-25T07:09:18.970Z,61.21
2018-07-25T07:10:18.911Z,61.40
2018-07-25T07:11:18.908Z,61.53
2018-07-25T07:12:18.834Z,61.53
2018-07-25T07:13:18.793Z,61.05
2018-07-25T07:14:18.747Z,60.37
2018-07-25T07:15:18.713Z,60.95
2018-07-25T07:16:18.702Z,60.85
2018-07-25T07:17:18.660Z,61.15
2018-07-25T07:18:18.620Z,61.33
2018-07-25T07:19:18.544Z,61.24
2018-07-25T07:20:18.510Z,61.56
2018-07-25T07:21:18.463Z,60.95
2018-07-25T07:22:18.456Z,60.78
2018-07-25T07:23:18.384Z,60.30
2018-07-25T07:24:18.347Z,60.78
2018-07-25T07:25:18.303Z,60.30
2018-07-25T07:26:18.261Z,60.21
2018-07-25T07:27:18.253Z,59.82
2018-07-25T07:28:18.178Z,59.53
2018-07-25T07:29:18.171Z,59.63
2018-07-25T07:30:18.102Z,59.63
2018-07-25T07:31:18.118Z,59.53
2018-07-25T07:32:18.020Z,59.14
2018-07-25T07:33:17.978Z,59.17
2018-07-25T07:34:17.978Z,59.07
2018-07-25T07:35:17.899Z,58.88
2018-07-25T07:36:17.858Z,58.30
2018-07-25T07:37:17.871Z,58.20
2018-07-25T07:38:17.777Z,57.81
2018-07-25T07:39:17.770Z,58.11
2018-07-25T07:40:17.696Z,58.01
2018-07-25T07:41:17.660Z,57.45
2018-07-25T07:42:17.616Z,57.55
2018-07-25T07:43:17.578Z,57.45
2018-07-25T07:44:17.686Z,56.20
2018-07-25T07:45:17.494Z,56.29
2018-07-25T07:46:17.456Z,56.39
2018-07-25T07:47:17.417Z,56.03
2018-07-25T07:48:17.376Z,56.41
2018-07-25T07:49:17.365Z,56.41
2018-07-25T07:50:17.292Z,56.32
2018-07-25T07:51:17.255Z,56.13
2018-07-25T07:52:17.215Z,55.06
2018-07-25T07:53:17.171Z,55.26
2018-07-25T07:54:17.171Z,54.38
2018-07-25T07:55:17.095Z,54.09
2018-07-25T07:56:17.058Z,54.11
2018-07-25T07:57:17.015Z,54.21
2018-07-25T07:58:16.973Z,53.53
2018-07-25T07:59:16.974Z,54.31
2018-07-25T08:00:16.902Z,53.63
2018-07-25T08:01:16.854Z,53.44
2018-07-25T08:02:16.814Z,52.78
2018-07-25T08:03:16.773Z,52.98
2018-07-25T08:04:16.776Z,52.50
2018-07-25T08:05:16.697Z,52.20
2018-07-25T08:06:16.652Z,51.91
2018-07-25T08:07:16.617Z,51.93
2018-07-25T08:08:16.578Z,51.16
2018-07-25T08:09:16.572Z,51.06
2018-07-25T08:10:16.497Z,50.87
2018-07-25T08:11:16.457Z,50.77
2018-07-25T08:12:16.474Z,50.19
2018-07-25T08:13:16.382Z,49.99
2018-07-25T08:14:16.337Z,49.54
2018-07-25T08:15:16.298Z,49.82
2018-07-25T08:16:16.261Z,49.63
2018-07-25T08:17:16.263Z,50.02
2018-07-25T08:18:16.182Z,49.66
2018-07-25T08:19:16.141Z,49.27
2018-07-25T08:20:16.104Z,48.97
2018-07-25T08:21:16.139Z,48.97
2018-07-25T08:22:16.074Z,49.17
2018-07-25T08:23:15.984Z,48.61
2018-07-25T08:24:15.947Z,48.90
2018-07-25T08:25:15.908Z,48.32
2018-07-25T08:26:15.868Z,47.96
2018-07-25T08:27:15.872Z,47.76
2018-07-25T08:28:15.794Z,47.66
2018-07-25T08:29:15.758Z,48.17
2018-07-25T08:30:15.710Z,47.78
2018-07-25T08:31:15.674Z,47.61
2018-07-25T08:32:15.667Z,47.13
2018-07-25T08:33:15.594Z,47.05
2018-07-25T08:34:15.560Z,46.17
2018-07-25T08:35:15.555Z,46.30
2018-07-25T08:36:15.488Z,46.00
2018-07-25T08:37:15.439Z,45.44
2018-07-25T08:38:15.434Z,45.85
2018-07-25T08:39:15.364Z,44.68
2018-07-25T08:40:15.326Z,43.92
2018-07-25T08:41:15.344Z,44.41
2018-07-25T08:42:15.252Z,43.55
2018-07-25T08:43:15.243Z,42.69
2018-07-25T08:44:15.170Z,42.61
2018-07-25T08:45:15.132Z,41.56
2018-07-25T08:46:15.130Z,40.97
2018-07-25T08:47:15.059Z,40.21
2018-07-25T08:48:15.020Z,40.60
2018-07-25T08:49:15.015Z,39.74
2018-07-25T08:50:14.947Z,39.74
2018-07-25T08:51:14.936Z,38.98
2018-07-25T08:52:14.868Z,38.90
2018-07-25T08:53:14.839Z,37.92
2018-07-25T08:54:14.791Z,38.12
2018-07-25T08:55:14.755Z,38.23
2018-07-25T08:56:14.758Z,38.23
2018-07-25T08:57:14.678Z,38.13
2018-07-25T08:58:14.857Z,38.06
2018-07-25T08:59:14.605Z,36.98
2018-07-25T09:00:14.598Z,36.40
2018-07-25T09:01:14.596Z,35.91
2018-07-25T09:02:14.495Z,36.30
2018-07-25T09:03:14.520Z,35.33
2018-07-25T09:04:14.420Z,35.33
2018-07-25T09:05:16.184Z,35.83
2018-07-25T09:06:14.406Z,35.44
2018-07-25T09:07:14.310Z,35.44
2018-07-25T09:08:14.272Z,35.24
2018-07-25T09:09:14.235Z,35.16
2018-07-25T09:10:14.198Z,34.67
2018-07-25T09:11:14.246Z,34.38
2018-07-25T09:12:14.129Z,34.49
2018-07-25T09:13:14.092Z,34.49
2018-07-25T09:14:14.084Z,34.22
2018-07-25T09:15:14.017Z,33.43
2018-07-25T09:16:14.001Z,34.11
2018-07-25T09:17:13.945Z,34.43
2018-07-25T09:18:13.912Z,33.64
2018-07-25T09:19:14.010Z,33.25
2018-07-25T09:20:13.844Z,33.07
2018-07-25T09:21:13.847Z,33.36
2018-07-25T09:22:13.764Z,33.18
2018-07-25T09:23:13.801Z,32.20
2018-07-25T09:24:13.750Z,32.00
2018-07-25T09:25:13.669Z,32.10
2018-07-25T09:26:13.623Z,32.11
2018-07-25T09:27:13.591Z,32.11
2018-07-25T09:28:13.585Z,31.62
2018-07-25T09:29:13.515Z,30.83
2018-07-25T09:30:13.479Z,30.73
2018-07-25T09:31:13.447Z,30.73
2018-07-25T09:32:13.412Z,30.73
2018-07-25T09:33:13.459Z,31.83
2018-07-25T09:34:13.397Z,32.03
2018-07-25T09:35:13.305Z,31.63
2018-07-25T09:36:13.276Z,30.37
2018-07-25T09:37:13.237Z,30.65
2018-07-25T09:38:13.241Z,30.65
2018-07-25T09:39:13.167Z,30.93
2018-07-25T09:40:13.131Z,31.39
2018-07-25T09:41:13.137Z,31.98
2018-07-25T09:42:13.060Z,32.76
2018-07-25T09:43:13.031Z,32.26
2018-07-25T09:44:12.994Z,32.36
2018-07-25T09:45:13.002Z,32.28
2018-07-25T09:46:12.959Z,32.08
2018-07-25T09:47:12.888Z,32.10
2018-07-25T09:48:12.857Z,32.10
2018-07-25T09:49:12.820Z,30.93
2018-07-25T09:50:12.816Z,30.93
2018-07-25T09:51:12.748Z,31.24
2018-07-25T09:52:12.717Z,30.75
2018-07-25T09:53:12.700Z,30.16
2018-07-25T09:54:12.646Z,30.76
2018-07-25T09:55:12.643Z,29.96
2018-07-25T09:56:12.579Z,30.75
2018-07-25T09:57:12.542Z,30.55
2018-07-25T09:58:12.515Z,30.35
2018-07-25T09:59:12.473Z,31.03
2018-07-25T10:00:12.478Z,30.91
2018-07-25T10:01:12.413Z,30.82
2018-07-25T10:02:12.374Z,30.62
2018-07-25T10:03:12.336Z,30.82
2018-07-25T10:04:12.313Z,31.23
2018-07-25T10:05:12.299Z,31.14
2018-07-25T10:06:12.239Z,31.34
2018-07-25T10:07:12.232Z,31.34
2018-07-25T10:08:12.178Z,30.47
2018-07-25T10:09:12.135Z,30.09
2018-07-25T10:10:12.131Z,29.60
2018-07-25T10:11:12.100Z,29.11
2018-07-25T10:12:12.031Z,28.34
2018-07-25T10:13:12.019Z,28.92
2018-07-25T10:14:11.963Z,28.53
2018-07-25T10:15:11.970Z,28.44
2018-07-25T10:16:11.930Z,27.04
2018-07-25T10:17:11.861Z,27.72
2018-07-25T10:18:11.835Z,28.89
2018-07-25T10:19:11.823Z,28.79
2018-07-25T10:20:11.763Z,29.07
2018-07-25T10:21:11.787Z,29.47
2018-07-25T10:22:11.706Z,29.76
2018-07-25T10:23:11.706Z,30.16
2018-07-25T10:24:11.673Z,29.86
2018-07-25T10:25:11.595Z,30.16
2018-07-25T10:26:11.563Z,29.86
2018-07-25T10:27:11.632Z,30.15
2018-07-25T10:28:11.540Z,30.24
2018-07-25T10:29:11.492Z,30.16
2018-07-25T10:30:11.428Z,29.48
2018-07-25T10:31:11.408Z,29.88
2018-07-25T10:32:11.360Z,29.39
2018-07-25T10:33:11.354Z,29.11
2018-07-25T10:34:11.298Z,29.02
2018-07-25T10:35:11.284Z,29.23
2018-07-25T10:36:11.277Z,28.44
2018-07-25T10:37:11.190Z,27.84
2018-07-25T10:38:11.186Z,28.05
2018-07-25T10:39:11.123Z,27.94
2018-07-25T10:40:11.092Z,27.96
2018-07-25T10:41:11.057Z,27.87
2018-07-25T10:42:11.056Z,27.28
2018-07-25T10:43:10.992Z,27.00
2018-07-25T10:44:11.013Z,26.80
2018-07-25T10:45:10.932Z,26.90
2018-07-25T10:46:10.899Z,26.70
2018-07-25T10:47:10.893Z,26.70
2018-07-25T10:48:10.825Z,26.19
2018-07-25T10:49:10.796Z,26.29
2018-07-25T10:50:10.760Z,27.09
2018-07-25T10:51:10.759Z,26.60
2018-07-25T10:52:10.695Z,26.98
2018-07-25T10:53:10.704Z,26.77
2018-07-25T10:54:10.631Z,26.57
2018-07-25T10:55:10.604Z,26.97
2018-07-25T10:56:10.568Z,26.67
2018-07-25T10:57:10.534Z,26.78
2018-07-25T10:58:10.542Z,26.68
2018-07-25T10:59:10.471Z,26.50
2018-07-25T11:00:10.436Z,26.98
2018-07-25T11:01:10.403Z,26.78
2018-07-25T11:02:10.433Z,25.98
2018-07-25T11:03:10.378Z,26.87
2018-07-25T11:04:10.308Z,26.97
2018-07-25T11:05:10.317Z,26.78
2018-07-25T11:06:10.240Z,26.90
2018-07-25T11:07:10.212Z,27.19
2018-07-25T11:08:10.208Z,26.81
2018-07-25T11:09:10.142Z,26.71
2018-07-25T11:10:10.144Z,26.51
2018-07-25T11:11:10.076Z,26.12
2018-07-25T11:12:10.047Z,26.12
2018-07-25T11:13:10.015Z,26.02
2018-07-25T11:14:10.006Z,26.91
2018-07-25T11:15:09.981Z,26.12
2018-07-25T11:16:09.917Z,25.44
2018-07-25T11:17:09.883Z,23.74
2018-07-25T11:18:09.849Z,24.43
2018-07-25T11:19:09.820Z,25.42
2018-07-25T11:20:09.821Z,25.42
2018-07-25T11:21:09.754Z,26.12
2018-07-25T11:22:09.770Z,25.84
2018-07-25T11:23:09.794Z,25.54
2018-07-25T11:24:09.660Z,25.34
2018-07-25T11:25:09.629Z,25.25
2018-07-25T11:26:09.596Z,25.37
2018-07-25T11:27:09.619Z,24.47
2018-07-25T11:28:09.533Z,23.68
2018-07-25T11:29:09.498Z,23.74
2018-07-25T11:30:09.466Z,23.72
2018-07-25T11:31:09.437Z,24.49
2018-07-25T11:32:09.444Z,25.56
2018-07-25T11:33:09.368Z,26.07
2018-07-25T11:34:09.350Z,26.38
2018-07-25T11:35:09.310Z,26.19
2018-07-25T11:36:09.284Z,26.20
2018-07-25T11:37:09.273Z,25.72
2018-07-25T11:38:09.217Z,25.23
2018-07-25T11:39:09.216Z,24.82
2018-07-25T11:40:09.150Z,25.02
2018-07-25T11:41:09.173Z,25.40
2018-07-25T11:42:09.084Z,25.19
2018-07-25T11:43:09.051Z,25.48
2018-07-25T11:44:09.023Z,25.77
2018-07-25T11:45:08.990Z,25.96
2018-07-25T11:46:08.996Z,26.36
2018-07-25T11:47:08.925Z,26.15
2018-07-25T11:48:08.893Z,26.04
2018-07-25T11:49:08.863Z,26.14
2018-07-25T11:50:08.956Z,26.14
2018-07-25T11:51:08.825Z,26.32
2018-07-25T11:52:08.760Z,27.22
2018-07-25T11:53:08.741Z,27.03
2018-07-25T11:54:08.755Z,26.94
2018-07-25T11:55:08.662Z,26.94
2018-07-25T11:56:08.632Z,26.26
2018-07-25T11:57:08.601Z,26.38
2018-07-25T11:58:08.567Z,26.08
2018-07-25T11:59:08.585Z,25.79
2018-07-25T12:00:08.503Z,25.71
2018-07-25T12:01:08.521Z,26.12
2018-07-25T12:02:08.438Z,25.23
2018-07-25T12:03:08.404Z,25.52
2018-07-25T12:04:08.421Z,25.24
2018-07-25T12:05:08.341Z,24.56
2018-07-25T12:06:08.309Z,24.18
2018-07-25T12:07:08.274Z,24.27
2018-07-25T12:08:08.245Z,24.58
2018-07-25T12:09:08.264Z,24.48
2018-07-25T12:10:08.180Z,23.59
2018-07-25T12:11:08.155Z,23.79
2018-07-25T12:12:08.115Z,23.69
2018-07-25T12:13:08.086Z,23.69
2018-07-25T12:14:08.091Z,22.81
2018-07-25T12:15:08.047Z,22.60
2018-07-25T12:16:07.990Z,22.41
2018-07-25T12:17:07.956Z,22.61
2018-07-25T12:18:07.926Z,22.22
2018-07-25T12:19:07.896Z,22.33
2018-07-25T12:20:07.989Z,21.83
2018-07-25T12:21:07.921Z,21.73
2018-07-25T12:22:07.829Z,21.64
2018-07-25T12:23:07.816Z,21.84
2018-07-25T12:24:07.789Z,21.54
2018-07-25T12:25:08.284Z,21.64
2018-07-25T12:26:08.229Z,21.45
2018-07-25T12:27:07.932Z,21.15
2018-07-25T12:28:08.113Z,21.14
2018-07-25T12:29:07.649Z,21.63
2018-07-25T12:30:07.610Z,21.73
2018-07-25T12:31:07.703Z,22.22
2018-07-25T12:32:08.242Z,21.61
2018-07-25T12:33:07.555Z,21.80
2018-07-25T12:34:07.485Z,21.89
2018-07-25T12:35:07.451Z,22.58
2018-07-25T12:36:08.257Z,22.58
2018-07-25T12:37:07.466Z,22.78
2018-07-25T12:38:07.398Z,22.78
2018-07-25T12:39:07.448Z,22.17
2018-07-25T12:40:07.843Z,21.95
2018-07-25T12:41:07.338Z,23.35
2018-07-25T12:42:07.282Z,24.14
2018-07-25T12:43:07.237Z,22.75
2018-07-25T12:44:07.179Z,23.35
2018-07-25T12:45:07.128Z,23.75
2018-07-25T12:46:07.056Z,23.57
2018-07-25T12:47:07.021Z,22.89
2018-07-25T12:48:06.992Z,22.49
2018-07-25T12:49:06.982Z,22.11
2018-07-25T12:50:06.978Z,21.58
2018-07-25T12:51:06.970Z,22.77
2018-07-25T12:52:06.868Z,23.46